createdAt,value
2023-04-14T00:02:11.745Z,99396.34
2023-04-14T00:04:38.400Z,99381.50
2023-04-14T00:07:05.392Z,99393.31
2023-04-14T00:09:31.936Z,99383.53
2023-04-14T00:11:58.556Z,99385.53
2023-04-14T00:14:25.363Z,99378.94
2023-04-14T00:16:51.911Z,99382.00
2023-04-14T00:19:18.452Z,99379.63
2023-04-14T00:21:45.266Z,99384.00
2023-04-14T00:24:11.745Z,99384.00
2023-04-14T00:26:38.501Z,99385.53
2023-04-14T00:29:05.529Z,99379.63
2023-04-14T00:31:32.211Z,99379.78
2023-04-14T00:33:58.722Z,99376.09
2023-04-14T00:36:25.186Z,99369.47
2023-04-14T00:38:51.655Z,99370.50
2023-04-14T00:41:18.272Z,99367.63
2023-04-14T00:43:44.732Z,99368.31
2023-04-14T00:46:11.596Z,99368.81
2023-04-14T00:48:38.177Z,99366.44
2023-04-14T00:51:05.187Z,99365.94
2023-04-14T00:53:32.776Z,99363.09
2023-04-14T00:55:59.399Z,99371.84
2023-04-14T00:58:26.295Z,99369.16
2023-04-14T01:00:55.593Z,99359.34
2023-04-14T01:03:24.466Z,99373.22
2023-04-14T01:05:51.381Z,99369.63
2023-04-14T01:08:18.721Z,99376.94
2023-04-14T01:10:58.707Z,99369.00
2023-04-14T01:13:33.699Z,99374.19
2023-04-14T01:16:04.642Z,99373.88
2023-04-14T01:19:01.412Z,99373.38
2023-04-14T01:21:33.119Z,99370.16
2023-04-14T01:24:21.036Z,99372.16
2023-04-14T01:26:48.113Z,99375.69
2023-04-14T01:29:34.831Z,99376.34
2023-04-14T01:32:20.488Z,99372.47
2023-04-14T01:35:05.825Z,99380.06
2023-04-14T01:37:35.603Z,99367.72
2023-04-14T01:40:07.792Z,99378.16
2023-04-14T01:42:36.203Z,99375.28
2023-04-14T01:45:09.028Z,99361.78
2023-04-14T01:47:35.713Z,99374.91
2023-04-14T01:50:05.206Z,99371.38
2023-04-14T01:52:32.738Z,99358.72
2023-04-14T01:55:00.063Z,99371.22
2023-04-14T01:57:27.280Z,99371.03
2023-04-14T01:59:55.378Z,99373.09
2023-04-14T02:02:22.658Z,99365.13
2023-04-14T02:04:50.229Z,99369.53
2023-04-14T02:07:17.647Z,99374.59
2023-04-14T02:09:45.337Z,99379.78
2023-04-14T02:12:12.746Z,99380.47
2023-04-14T02:14:41.759Z,99385.38
2023-04-14T02:17:10.258Z,99383.50
2023-04-14T02:19:37.107Z,99375.56
2023-04-14T02:22:04.519Z,99378.41
2023-04-14T02:24:31.252Z,99377.16
2023-04-14T02:27:01.327Z,99383.38
2023-04-14T02:29:28.750Z,99381.00
2023-04-14T02:31:59.947Z,99376.06
2023-04-14T02:34:30.826Z,99382.06
2023-04-14T02:36:58.136Z,99377.59
2023-04-14T02:39:33.086Z,99371.72
2023-04-14T02:42:08.354Z,99377.03
2023-04-14T02:44:39.197Z,99376.97
2023-04-14T02:47:08.845Z,99367.34
2023-04-14T02:49:37.344Z,99381.47
2023-04-14T02:52:10.717Z,99375.63
2023-04-14T02:54:39.295Z,99380.63
2023-04-14T02:57:06.042Z,99380.31
2023-04-14T02:59:32.783Z,99375.19
2023-04-14T03:02:03.296Z,99384.09
2023-04-14T03:04:34.634Z,99381.69
2023-04-14T03:07:03.085Z,99383.38
2023-04-14T03:09:31.305Z,99373.16
2023-04-14T03:11:58.642Z,99387.00
2023-04-14T03:14:26.218Z,99380.31
2023-04-14T03:16:53.807Z,99383.56
2023-04-14T03:19:22.410Z,99383.75
2023-04-14T03:21:50.576Z,99385.47
2023-04-14T03:24:24.326Z,99382.47
2023-04-14T03:26:52.504Z,99387.06
2023-04-14T03:29:20.969Z,99385.38
2023-04-14T03:31:48.167Z,99387.41
2023-04-14T03:34:15.680Z,99383.16
2023-04-14T03:36:42.807Z,99390.19
2023-04-14T03:39:11.802Z,99392.34
2023-04-14T03:41:39.666Z,99402.06
2023-04-14T03:44:06.717Z,99399.63
2023-04-14T03:46:33.332Z,99403.31
2023-04-14T03:49:01.744Z,99406.47
2023-04-14T03:51:29.224Z,99403.38
2023-04-14T03:53:58.145Z,99407.41
2023-04-14T03:56:26.024Z,99405.75
2023-04-14T03:58:55.174Z,99401.75
2023-04-14T04:01:25.874Z,99408.84
2023-04-14T04:03:54.205Z,99408.63
2023-04-14T04:06:21.134Z,99412.31
2023-04-14T04:08:48.997Z,99415.50
2023-04-14T04:11:19.014Z,99410.09
2023-04-14T04:13:47.746Z,99409.69
2023-04-14T04:16:14.750Z,99410.56
2023-04-14T04:18:46.671Z,99414.97
2023-04-14T04:21:14.973Z,99417.28
2023-04-14T04:23:42.502Z,99406.94
2023-04-14T04:26:09.240Z,99416.47
2023-04-14T04:28:36.694Z,99415.47
2023-04-14T04:31:05.244Z,99422.94
2023-04-14T04:33:32.636Z,99420.47
2023-04-14T04:36:00.016Z,99421.84
2023-04-14T04:38:26.955Z,99433.53
2023-04-14T04:40:53.424Z,99418.22
2023-04-14T04:43:20.072Z,99426.94
2023-04-14T04:45:58.930Z,99435.06
2023-04-14T04:48:25.724Z,99430.00
2023-04-14T04:50:52.195Z,99434.97
2023-04-14T04:53:18.782Z,99450.66
2023-04-14T04:55:45.339Z,99444.94
2023-04-14T04:58:11.931Z,99439.09
2023-04-14T05:00:38.887Z,99447.75
2023-04-14T05:03:05.557Z,99437.00
2023-04-14T05:05:36.442Z,99435.13
2023-04-14T05:08:04.523Z,99432.59
2023-04-14T05:10:31.116Z,99439.59
2023-04-14T05:12:57.675Z,99444.97
2023-04-14T05:15:24.320Z,99448.47
2023-04-14T05:17:51.265Z,99435.16
2023-04-14T05:20:17.963Z,99439.78
2023-04-14T05:22:44.467Z,99439.91
2023-04-14T05:25:11.202Z,99438.50
2023-04-14T05:27:37.733Z,99438.75
2023-04-14T05:30:05.275Z,99441.75
2023-04-14T05:32:31.912Z,99443.69
2023-04-14T05:34:58.582Z,99443.94
2023-04-14T05:37:25.538Z,99444.78
2023-04-14T05:39:52.172Z,99433.81
2023-04-14T05:42:18.647Z,99434.34
2023-04-14T05:44:45.312Z,99448.44
2023-04-14T05:47:11.824Z,99439.19
2023-04-14T05:49:38.461Z,99439.50
2023-04-14T05:52:05.477Z,99446.38
2023-04-14T05:54:32.095Z,99439.88
2023-04-14T05:56:58.782Z,99444.94
2023-04-14T05:59:25.782Z,99431.09
2023-04-14T06:01:52.526Z,99437.81
2023-04-14T06:04:19.195Z,99443.13
2023-04-14T06:06:46.052Z,99441.53
2023-04-14T06:09:12.612Z,99448.50
2023-04-14T06:11:39.798Z,99452.84
2023-04-14T06:14:07.561Z,99446.59
2023-04-14T06:16:34.422Z,99448.50
2023-04-14T06:19:01.502Z,99449.97
2023-04-14T06:21:28.643Z,99453.69
2023-04-14T06:23:55.552Z,99459.31
2023-04-14T06:26:22.638Z,99456.53
2023-04-14T06:28:49.301Z,99448.75
2023-04-14T06:31:17.368Z,99454.16
2023-04-14T06:33:46.190Z,99456.53
2023-04-14T06:36:13.970Z,99454.16
2023-04-14T06:38:40.651Z,99452.81
2023-04-14T06:41:07.587Z,99457.16
2023-04-14T06:43:34.183Z,99450.94
2023-04-14T06:46:01.053Z,99463.75
2023-04-14T06:48:28.096Z,99454.25
2023-04-14T06:50:56.097Z,99455.72
2023-04-14T06:53:23.402Z,99448.19
2023-04-14T06:55:59.393Z,99448.19
2023-04-14T06:58:30.414Z,99448.81
2023-04-14T07:01:01.500Z,99452.06
2023-04-14T07:03:30.500Z,99448.00
2023-04-14T07:06:09.294Z,99447.31
2023-04-14T07:08:36.609Z,99441.69
2023-04-14T07:11:06.168Z,99446.34
2023-04-14T07:13:33.834Z,99439.78
2023-04-14T07:16:03.802Z,99443.44
2023-04-14T07:18:31.893Z,99444.09
2023-04-14T07:20:59.926Z,99443.25
2023-04-14T07:23:27.337Z,99445.28
2023-04-14T07:25:55.097Z,99443.63
2023-04-14T07:28:23.112Z,99437.81
2023-04-14T07:30:50.716Z,99442.34
2023-04-14T07:33:19.059Z,99444.25
2023-04-14T07:36:01.385Z,99440.03
2023-04-14T07:38:29.734Z,99449.50
2023-04-14T07:40:56.495Z,99448.00
2023-04-14T07:43:23.991Z,99446.31
2023-04-14T07:45:52.523Z,99448.66
2023-04-14T07:48:21.307Z,99452.94
2023-04-14T07:50:49.882Z,99455.94
2023-04-14T07:53:16.566Z,99447.50
2023-04-14T07:55:43.250Z,99450.16
2023-04-14T07:58:15.119Z,99445.16
2023-04-14T08:00:42.605Z,99441.88
2023-04-14T08:03:10.099Z,99450.94
2023-04-14T08:05:37.003Z,99443.13
2023-04-14T08:08:05.116Z,99449.50
2023-04-14T08:10:31.995Z,99442.97
2023-04-14T08:12:58.965Z,99445.41
2023-04-14T08:15:26.590Z,99449.88
2023-04-14T08:17:54.542Z,99450.44
2023-04-14T08:20:21.196Z,99447.16
2023-04-14T08:22:48.311Z,99438.19
2023-04-14T08:25:15.252Z,99437.63
2023-04-14T08:27:41.793Z,99435.31
2023-04-14T08:30:10.248Z,99432.22
2023-04-14T08:32:38.267Z,99438.66
2023-04-14T08:35:39.343Z,99440.81
2023-04-14T08:37:52.324Z,99439.94
2023-04-14T08:40:19.443Z,99433.53
2023-04-14T08:42:46.314Z,99435.06
2023-04-14T08:45:13.239Z,99434.66
2023-04-14T08:47:41.042Z,99436.06
2023-04-14T08:50:13.431Z,99431.69
2023-04-14T08:52:40.856Z,99439.38
2023-04-14T08:55:08.348Z,99435.28
2023-04-14T08:57:35.214Z,99433.78
2023-04-14T09:00:05.237Z,99429.06
2023-04-14T09:02:35.283Z,99425.19
2023-04-14T09:05:03.627Z,99425.78
2023-04-14T09:07:30.597Z,99422.78
2023-04-14T09:09:57.751Z,99427.69
2023-04-14T09:12:26.115Z,99423.00
2023-04-14T09:14:53.705Z,99414.81
2023-04-14T09:17:20.526Z,99421.78
2023-04-14T09:20:35.877Z,99419.84
2023-04-14T09:22:34.952Z,99422.03
2023-04-14T09:25:03.633Z,99421.38
2023-04-14T09:27:30.641Z,99424.25
2023-04-14T09:29:58.668Z,99418.16
2023-04-14T09:32:26.280Z,99415.44
2023-04-14T09:34:55.633Z,99418.75
2023-04-14T09:37:24.370Z,99422.44
2023-04-14T09:39:52.280Z,99423.31
2023-04-14T09:42:19.226Z,99425.69
2023-04-14T09:44:56.392Z,99425.22
2023-04-14T09:47:25.293Z,99421.75
2023-04-14T09:49:57.741Z,99425.13
2023-04-14T09:52:40.057Z,99419.41
2023-04-14T09:55:09.987Z,99424.63
2023-04-14T09:57:37.450Z,99412.38
2023-04-14T10:00:24.677Z,99415.31
2023-04-14T10:02:56.560Z,99401.19
2023-04-14T10:05:33.821Z,99411.56
2023-04-14T10:08:05.445Z,99409.00
2023-04-14T10:10:32.746Z,99403.53
2023-04-14T10:13:00.580Z,99401.56
2023-04-14T10:15:27.385Z,99399.50
2023-04-14T10:17:54.257Z,99393.84
2023-04-14T10:20:21.095Z,99401.91
2023-04-14T10:22:47.985Z,99407.41
2023-04-14T10:25:14.804Z,99395.34
2023-04-14T10:27:41.591Z,99389.59
2023-04-14T10:30:09.031Z,99396.25
2023-04-14T10:32:37.564Z,99391.66
2023-04-14T10:35:08.957Z,99396.25
2023-04-14T10:37:36.063Z,99395.84
2023-04-14T10:40:08.358Z,99396.91
2023-04-14T10:42:57.266Z,99396.22
2023-04-14T10:45:24.031Z,99398.78
2023-04-14T10:47:51.253Z,99399.41
2023-04-14T10:50:19.217Z,99403.22
2023-04-14T10:52:50.744Z,99403.03
2023-04-14T10:55:17.952Z,99400.66
2023-04-14T10:57:45.988Z,99389.03
2023-04-14T11:00:25.448Z,99386.63
2023-04-14T11:03:10.537Z,99385.72
2023-04-14T11:05:43.358Z,99382.22
2023-04-14T11:08:14.903Z,99376.13
2023-04-14T11:10:48.101Z,99378.06
2023-04-14T11:13:17.543Z,99374.44
2023-04-14T11:16:05.985Z,99380.28
2023-04-14T11:18:45.232Z,99368.53
2023-04-14T11:21:14.537Z,99372.13
2023-04-14T11:23:41.820Z,99376.50
2023-04-14T11:26:09.876Z,99369.34
2023-04-14T11:28:38.189Z,99365.41
2023-04-14T11:31:06.488Z,99368.31
2023-04-14T11:33:36.741Z,99356.88
2023-04-14T11:36:05.888Z,99365.09
2023-04-14T11:38:35.729Z,99358.59
2023-04-14T11:41:03.545Z,99358.66
2023-04-14T11:43:32.983Z,99355.78
2023-04-14T11:46:04.130Z,99353.22
2023-04-14T11:48:31.062Z,99362.03
2023-04-14T11:51:04.759Z,99353.31
2023-04-14T11:53:32.326Z,99358.78
2023-04-14T11:56:00.519Z,99360.22
2023-04-14T11:58:27.748Z,99350.38
2023-04-14T12:00:56.234Z,99347.00
2023-04-14T12:03:30.656Z,99346.28
2023-04-14T12:06:00.829Z,99339.13
2023-04-14T12:08:30.693Z,99338.31
2023-04-14T12:10:57.840Z,99339.59
2023-04-14T12:13:24.766Z,99342.97
2023-04-14T12:15:52.804Z,99326.66
2023-04-14T12:20:47.810Z,99323.84
2023-04-14T12:23:15.678Z,99329.94
2023-04-14T12:25:42.269Z,99327.47
2023-04-14T12:28:09.050Z,99323.91
2023-04-14T12:30:36.912Z,99321.38
2023-04-14T12:33:10.217Z,99315.47
2023-04-14T12:35:37.477Z,99319.50
2023-04-14T12:38:14.592Z,99313.41
2023-04-14T12:40:43.924Z,99318.22
2023-04-14T12:43:10.810Z,99305.22
2023-04-14T12:45:47.391Z,99307.91
2023-04-14T12:48:15.934Z,99307.53
2023-04-14T12:50:45.437Z,99308.78
2023-04-14T12:53:29.374Z,99307.28
2023-04-14T12:56:06.962Z,99302.25
2023-04-14T12:58:37.990Z,99293.56
2023-04-14T13:01:08.118Z,99299.41
2023-04-14T13:03:46.311Z,99303.44
2023-04-14T13:06:18.002Z,99291.63
2023-04-14T13:08:46.258Z,99292.16
2023-04-14T13:11:17.109Z,99288.19
2023-04-14T13:13:46.532Z,99292.34
2023-04-14T13:16:16.775Z,99289.38
2023-04-14T13:18:45.283Z,99291.38
2023-04-14T13:21:11.892Z,99283.03
2023-04-14T13:23:38.801Z,99292.31
2023-04-14T13:26:06.386Z,99293.81
2023-04-14T13:28:33.071Z,99298.50
2023-04-14T13:30:59.670Z,99297.97
2023-04-14T13:33:27.568Z,99306.84
2023-04-14T13:35:55.709Z,99300.47
2023-04-14T13:38:24.556Z,99295.44
2023-04-14T13:40:51.124Z,99290.47
2023-04-14T13:43:18.931Z,99284.75
2023-04-14T13:45:46.317Z,99278.06
2023-04-14T13:48:13.715Z,99287.69
2023-04-14T13:50:40.357Z,99292.84
2023-04-14T13:53:07.077Z,99295.16
2023-04-14T13:55:34.868Z,99291.22
2023-04-14T13:58:01.624Z,99285.75
2023-04-14T14:00:28.322Z,99300.50
2023-04-14T14:02:55.038Z,99293.78
2023-04-14T14:05:21.874Z,99288.34
2023-04-14T14:07:48.682Z,99289.59
2023-04-14T14:10:15.264Z,99282.44
2023-04-14T14:12:42.328Z,99284.00
2023-04-14T14:15:09.622Z,99273.69
2023-04-14T14:17:37.393Z,99273.69
2023-04-14T14:20:06.402Z,99277.56
2023-04-14T14:22:33.066Z,99281.94
2023-04-14T14:25:15.305Z,99283.66
2023-04-14T14:27:45.772Z,99290.00
2023-04-14T14:30:12.914Z,99286.44
2023-04-14T14:32:39.600Z,99267.81
2023-04-14T14:35:06.672Z,99277.88
2023-04-14T14:37:33.178Z,99283.16
2023-04-14T14:39:59.859Z,99285.63
2023-04-14T14:42:27.033Z,99279.72
2023-04-14T14:44:54.270Z,99267.28
2023-04-14T14:47:21.141Z,99276.16
2023-04-14T14:49:58.914Z,99283.94
2023-04-14T14:52:34.239Z,99278.06
2023-04-14T14:55:01.514Z,99274.31
2023-04-14T14:57:32.410Z,99271.41
2023-04-14T14:59:59.100Z,99277.50
2023-04-14T15:02:26.251Z,99286.94
2023-04-14T15:04:54.089Z,99276.69
2023-04-14T15:07:20.906Z,99276.44
2023-04-14T15:09:47.930Z,99272.84
2023-04-14T15:12:14.676Z,99265.09
2023-04-14T15:14:41.348Z,99273.28
2023-04-14T15:17:08.297Z,99269.50
2023-04-14T15:19:35.001Z,99269.53
2023-04-14T15:22:01.784Z,99272.03
2023-04-14T15:24:28.494Z,99263.88
2023-04-14T15:26:55.119Z,99270.13
2023-04-14T15:29:25.077Z,99254.19
2023-04-14T15:31:52.047Z,99266.16
2023-04-14T15:34:18.835Z,99260.06
2023-04-14T15:36:45.938Z,99261.53
2023-04-14T15:39:12.615Z,99278.09
2023-04-14T15:41:39.099Z,99276.63
2023-04-14T15:44:05.940Z,99291.06
2023-04-14T15:46:32.773Z,99284.09
2023-04-14T15:48:59.586Z,99280.47
2023-04-14T15:51:26.263Z,99289.81
2023-04-14T15:53:52.835Z,99283.88
2023-04-14T15:56:23.006Z,99289.31
2023-04-14T15:58:49.912Z,99284.00
2023-04-14T16:01:16.663Z,99285.06
2023-04-14T16:03:43.449Z,99273.50
2023-04-14T16:06:10.164Z,99283.66
2023-04-14T16:08:37.217Z,99300.81
2023-04-14T16:11:04.942Z,99297.81
2023-04-14T16:13:31.646Z,99303.69
2023-04-14T16:15:58.614Z,99293.97
2023-04-14T16:18:25.244Z,99301.25
2023-04-14T16:20:51.960Z,99292.13
2023-04-14T16:23:18.697Z,99301.84
2023-04-14T16:25:51.182Z,99295.59
2023-04-14T16:28:18.243Z,99305.59
2023-04-14T16:30:45.862Z,99303.44
2023-04-14T16:33:12.568Z,99308.34
2023-04-14T16:35:39.267Z,99304.09
2023-04-14T16:38:08.506Z,99321.69
2023-04-14T16:40:36.656Z,99306.03
2023-04-14T16:43:04.585Z,99302.19
2023-04-14T16:45:32.173Z,99314.09
2023-04-14T16:47:59.078Z,99310.91
2023-04-14T16:50:25.763Z,99317.91
2023-04-14T16:52:52.561Z,99327.91
2023-04-14T16:55:19.115Z,99329.06
2023-04-14T16:57:45.926Z,99327.56
2023-04-14T17:00:13.794Z,99325.97
2023-04-14T17:02:41.277Z,99338.94
2023-04-14T17:05:10.721Z,99343.59
2023-04-14T17:07:37.733Z,99341.19
2023-04-14T17:10:05.959Z,99349.19
2023-04-14T17:12:32.881Z,99347.19
2023-04-14T17:15:00.976Z,99351.69
2023-04-14T17:17:28.427Z,99353.84
2023-04-14T17:19:56.817Z,99349.44
2023-04-14T17:22:24.726Z,99353.47
2023-04-14T17:24:52.130Z,99356.28
2023-04-14T17:27:20.123Z,99347.28
2023-04-14T17:29:47.537Z,99345.03
2023-04-14T17:32:14.339Z,99358.72
2023-04-14T17:34:41.134Z,99351.28
2023-04-14T17:37:07.924Z,99357.94
2023-04-14T17:39:34.538Z,99362.22
2023-04-14T17:42:01.628Z,99363.03
2023-04-14T17:44:33.452Z,99363.63
2023-04-14T17:47:12.692Z,99367.38
2023-04-14T17:49:39.212Z,99373.63
2023-04-14T17:52:07.036Z,99375.03
2023-04-14T17:54:33.782Z,99375.72
2023-04-14T17:57:00.458Z,99373.75
2023-04-14T17:59:27.457Z,99380.03
2023-04-14T18:01:54.230Z,99379.91
2023-04-14T18:04:21.377Z,99377.56
2023-04-14T18:06:48.033Z,99375.53
2023-04-14T18:09:14.677Z,99382.91
2023-04-14T18:11:41.488Z,99377.66
2023-04-14T18:14:08.545Z,99389.16
2023-04-14T18:16:35.080Z,99391.22
2023-04-14T18:19:02.220Z,99383.31
2023-04-14T18:21:29.657Z,99403.16
2023-04-14T18:26:27.339Z,99406.75
2023-04-14T18:28:54.314Z,99407.63
2023-04-14T18:31:21.027Z,99400.19
2023-04-14T18:33:47.897Z,99410.03
2023-04-14T18:36:14.584Z,99426.59
2023-04-14T18:38:41.160Z,99417.47
2023-04-14T18:41:08.301Z,99425.28
2023-04-14T18:43:34.884Z,99422.03
2023-04-14T18:46:01.620Z,99420.16
2023-04-14T18:48:28.847Z,99424.78
2023-04-14T18:51:01.736Z,99421.03
2023-04-14T18:53:28.737Z,99409.66
2023-04-14T18:55:55.681Z,99416.97
2023-04-14T18:58:22.879Z,99430.34
2023-04-14T19:00:49.771Z,99422.25
2023-04-14T19:03:16.950Z,99428.56
2023-04-14T19:05:43.972Z,99429.75
2023-04-14T19:08:10.856Z,99426.53
2023-04-14T19:10:38.521Z,99427.72
2023-04-14T19:13:05.782Z,99439.38
2023-04-14T19:15:32.350Z,99435.31
2023-04-14T19:17:59.165Z,99437.88
2023-04-14T19:20:26.738Z,99432.97
2023-04-14T19:22:53.756Z,99434.47
2023-04-14T19:25:20.489Z,99434.47
2023-04-14T19:27:47.022Z,99428.22
2023-04-14T19:30:13.935Z,99439.88
2023-04-14T19:32:41.507Z,99432.59
2023-04-14T19:35:08.862Z,99442.59
2023-04-14T19:37:36.052Z,99435.78
2023-04-14T19:40:06.429Z,99427.47
2023-04-14T19:42:33.406Z,99427.84
2023-04-14T19:45:00.547Z,99415.84
2023-04-14T19:47:27.721Z,99421.63
2023-04-14T19:49:55.047Z,99423.84
2023-04-14T19:52:22.381Z,99413.88
2023-04-14T19:54:49.523Z,99415.75
2023-04-14T19:57:16.740Z,99415.06
2023-04-14T19:59:44.259Z,99423.19
2023-04-14T20:02:13.051Z,99423.84
2023-04-14T20:04:39.908Z,99424.38
2023-04-14T20:07:06.515Z,99415.06
2023-04-14T20:09:33.535Z,99417.13
2023-04-14T20:12:02.550Z,99420.34
2023-04-14T20:14:30.202Z,99424.59
2023-04-14T20:16:57.175Z,99413.75
2023-04-14T20:19:24.508Z,99417.47
2023-04-14T20:21:51.247Z,99425.25
2023-04-14T20:24:18.016Z,99437.44
2023-04-14T20:26:45.099Z,99423.75
2023-04-14T20:29:12.150Z,99424.06
2023-04-14T20:31:39.797Z,99430.19
2023-04-14T20:34:06.454Z,99424.78
2023-04-14T20:36:35.984Z,99432.34
2023-04-14T20:39:05.705Z,99415.94
2023-04-14T20:41:33.886Z,99417.63
2023-04-14T20:44:01.428Z,99418.66
2023-04-14T20:46:28.900Z,99424.78
2023-04-14T20:48:56.736Z,99413.78
2023-04-14T20:51:23.770Z,99405.81
2023-04-14T20:53:50.952Z,99412.06
2023-04-14T20:56:17.882Z,99414.94
2023-04-14T20:58:45.796Z,99419.84
2023-04-14T21:01:12.736Z,99401.75
2023-04-14T21:03:39.892Z,99411.53
2023-04-14T21:06:06.797Z,99407.50
2023-04-14T21:08:33.513Z,99408.16
2023-04-14T21:11:14.802Z,99412.06
2023-04-14T21:15:26.846Z,99408.34
2023-04-14T21:16:30.832Z,99405.81
2023-04-14T21:18:57.637Z,99403.81
2023-04-14T21:21:24.307Z,99389.22
2023-04-14T21:23:51.303Z,99389.78
2023-04-14T21:26:17.997Z,99389.28
2023-04-14T21:28:44.536Z,99393.31
2023-04-14T21:31:11.386Z,99392.28
2023-04-14T21:33:39.725Z,99401.09
2023-04-14T21:36:07.037Z,99398.22
2023-04-14T21:38:33.610Z,99401.44
2023-04-14T21:41:00.272Z,99399.59
2023-04-14T21:43:26.774Z,99404.81
2023-04-14T21:45:53.998Z,99400.91
2023-04-14T21:48:20.792Z,99399.72
2023-04-14T21:50:47.449Z,99390.28
2023-04-14T21:53:14.193Z,99401.25
2023-04-14T21:55:41.117Z,99403.63
2023-04-14T21:58:07.677Z,99396.38
2023-04-14T22:00:34.689Z,99402.63
2023-04-14T22:03:03.295Z,99397.72
2023-04-14T22:05:29.948Z,99393.31
2023-04-14T22:07:56.591Z,99390.78
2023-04-14T22:10:23.545Z,99399.06
2023-04-14T22:12:50.848Z,99401.28
2023-04-14T22:15:17.501Z,99400.09
2023-04-14T22:17:44.952Z,99393.00
2023-04-14T22:20:12.069Z,99399.72
2023-04-14T22:22:38.611Z,99389.41
2023-04-14T22:25:05.602Z,99396.03
2023-04-14T22:27:33.859Z,99395.19
2023-04-14T22:30:01.428Z,99388.25
2023-04-14T22:32:28.104Z,99398.72
2023-04-14T22:34:54.750Z,99398.41
2023-04-14T22:37:21.473Z,99397.91
2023-04-14T22:39:47.909Z,99406.00
2023-04-14T22:42:14.504Z,99402.44
2023-04-14T22:44:41.192Z,99406.16
2023-04-14T22:47:07.700Z,99407.69
2023-04-14T22:49:34.194Z,99400.41
2023-04-14T22:52:00.851Z,99402.28
2023-04-14T22:54:27.587Z,99396.03
2023-04-14T22:56:54.086Z,99401.25
2023-04-14T22:59:20.685Z,99401.25
2023-04-14T23:01:48.454Z,99389.09
2023-04-14T23:04:15.272Z,99396.88
2023-04-14T23:06:41.936Z,99393.00
2023-04-14T23:09:08.401Z,99391.63
2023-04-14T23:11:34.974Z,99397.03
2023-04-14T23:14:01.569Z,99381.16
2023-04-14T23:16:28.384Z,99392.47
2023-04-14T23:18:54.930Z,99380.31
2023-04-14T23:21:24.922Z,99384.00
2023-04-14T23:23:52.435Z,99381.66
2023-04-14T23:26:21.179Z,99380.81
2023-04-14T23:28:47.792Z,99382.84
2023-04-14T23:31:14.423Z,99387.75
2023-04-14T23:33:41.107Z,99396.53
2023-04-14T23:36:07.920Z,99392.81
2023-04-14T23:38:34.680Z,99396.03
2023-04-14T23:41:01.495Z,99384.88
2023-04-14T23:43:29.084Z,99397.19
2023-04-14T23:45:55.979Z,99397.88
2023-04-14T23:48:22.532Z,99393.00
2023-04-14T23:51:00.612Z,99397.53
2023-04-14T23:53:31.916Z,99394.81
2023-04-14T23:55:58.758Z,99391.13
2023-04-14T23:58:27.008Z,99391.47
